Flight Track Log - Related Links

Times and Time Zones

All times are in EDT time to prevent confusion due to time zone crossing. See the FLG4236 flight status page for this flight to view local times or setup timezone preferences in your user account.

Time Position Orientation Groundspeed Altitude Reporting Facility
EDT Latitude Longitude Course Direction KTS MPH feet Rate Location/Type
Wed 04:19:42 PM 41.5806 -93.7075 330° Northwest 162 186 3,000  Level Minneapolis Center
Wed 04:20:19 PM 41.6097 -93.7300 337° Northwest 192 221 4,100 1,680 Climbing Minneapolis Center
Wed 04:20:57 PM 41.6386 -93.7467 353° North 248 285 5,100 2,082 Climbing Minneapolis Center
Wed 04:21:57 PM 41.7094 -93.7581 352° North 254 292 7,500 2,350 Climbing Minneapolis Center
Wed 04:22:57 PM 41.7883 -93.7725 353° North 266 306 9,800 1,563 Climbing Minneapolis Center
Wed 04:23:56 PM 41.8717 -93.7869 351° North 278 320 10,600 950 Climbing Minneapolis Center
Wed 04:24:57 PM 41.9631 -93.8069 352° North 312 359 11,700 1,400 Climbing Minneapolis Center
Wed 04:25:56 PM 42.0589 -93.8242 351° North 335 386 13,400 1,750 Climbing Minneapolis Center
Wed 04:26:57 PM 42.1503 -93.8444 352° North 353 406 15,200 1,500 Climbing Minneapolis Center
Wed 04:27:56 PM 42.2439 -93.8617 353° North 348 400 16,400 1,059 Climbing Minneapolis Center
Wed 04:28:56 PM 42.3458 -93.8794 352° North 361 415 17,300 1,140 Climbing Minneapolis Center
Wed 04:29:57 PM 42.4519 -93.8997 351° North 377 434 18,700 843 Climbing Minneapolis Center
Wed 04:30:57 PM 42.5622 -93.9231 352° North 383 441 19,000 150 Climbing Minneapolis Center
Wed 04:31:57 PM 42.6725 -93.9439 352° North 394 453 19,000  Level Minneapolis Center
Wed 04:32:56 PM 42.7869 -93.9644 359° North 399 459 19,000  Level Minneapolis Center
Wed 04:33:57 PM 42.8972 -93.9683 36° Northeast 399 459 19,000  Level Minneapolis Center
Wed 04:34:57 PM 42.9892 -93.8756 38° Northeast 382 440 19,000  Level Minneapolis Center
Wed 04:35:57 PM 43.0875 -93.7711 40° Northeast 388 447 19,000  Level Minneapolis Center
Wed 04:36:57 PM 43.1731 -93.6722 39° Northeast 411 473 19,000  Level Minneapolis Center
Wed 04:37:57 PM 43.2647 -93.5700 North 416 479 19,000  Level Minneapolis Center
Wed 04:38:56 PM 43.3731 -93.5475 North 392 451 19,000  Level Minneapolis Center
Wed 04:39:56 PM 43.4772 -93.5389 352° North 379 436 19,000  Level Minneapolis Center
Wed 04:40:57 PM 43.5731 -93.5564 326° Northwest 335 386 19,000 -595 Level Minneapolis Center
Wed 04:41:57 PM 43.6439 -93.6225 North 317 365 17,800 -1,059 Descending Minneapolis Center
Wed 04:42:56 PM 43.7375 -93.6056 11° North 316 364 16,900 -850 Descending Minneapolis Center
Wed 04:43:57 PM 43.8417 -93.5769 11° North 328 377 16,100 -750 Descending Minneapolis Center
Wed 04:44:56 PM 43.9333 -93.5514 15° North 344 396 15,400 -727 Descending Minneapolis Center
Wed 04:45:36 PM 43.9939 -93.5281 11° North 341 392 14,900 -750 Descending FAA TRACON
Wed 04:46:16 PM 44.0578 -93.5108 12° North 340 391 14,400 -1,125 Descending FAA TRACON
Wed 04:46:56 PM 44.1142 -93.4939 13° North 337 388 13,400 -1,778 Descending FAA TRACON
Wed 04:47:37 PM 44.1761 -93.4744 14° North 328 377 12,000 -1,800 Descending FAA TRACON
Wed 04:48:16 PM 44.2344 -93.4547 26° Northeast 309 356 11,000 -759 Descending FAA TRACON
Wed 04:48:56 PM 44.2792 -93.4244 26° Northeast 290 334 11,000  Level FAA TRACON
Wed 04:49:36 PM 44.3256 -93.3931 28° Northeast 265 305 11,000 -225 Level FAA TRACON
Wed 04:50:16 PM 44.3692 -93.3611 25° Northeast 253 291 10,700 -675 Descending FAA TRACON
Wed 04:50:56 PM 44.4081 -93.3353 26° Northeast 253 291 10,100 -825 Descending FAA TRACON
Wed 04:51:36 PM 44.4481 -93.3083 26° Northeast 227 261 9,600 -889 Descending FAA TRACON
Wed 04:52:17 PM 44.4853 -93.2825 27° Northeast 215 247 8,900 -1,111 Descending FAA TRACON
Wed 04:52:57 PM 44.5214 -93.2569 20° North 210 242 8,100 -1,139 Descending FAA TRACON
Wed 04:53:36 PM 44.5547 -93.2400 14° North 207 238 7,400 -1,291 Descending FAA TRACON
Wed 04:54:16 PM 44.5933 -93.2269 North 209 241 6,400 -1,275 Descending FAA TRACON
Wed 04:54:56 PM 44.6286 -93.2228 North 207 238 5,700 -1,050 Descending FAA TRACON
Wed 04:55:36 PM 44.6664 -93.2161 12° North 198 228 5,000 -1,185 Descending FAA TRACON
Wed 04:56:17 PM 44.7042 -93.2050 North 201 231 4,100 -1,185 Descending FAA TRACON
Wed 04:56:57 PM 44.7425 -93.2031 348° North 198 228 3,400 -970 Descending FAA TRACON
Wed 04:57:56 PM 44.7911 -93.2172 349° North 193 222 2,500 -970 Descending FAA TRACON
Wed 04:58:36 PM 44.8236 -93.2258 350° North 167 192 1,800 -975 Descending FAA TRACON
Wed 04:59:16 PM 44.8517 -93.2331 356° North 146 168 1,200 -300 Descending FAA TRACON
Wed 05:01:56 PM 44.8892 -93.2369 356° North 22 25 800 -150 Descending Minneapolis Center

Login

Don't have an account? Register now (free) for customized features, flight alerts, and more!